Hovedside
METAR-TAF:

METAR-TAF

Lufthavner :

Wellington, New Zealand

Wellington internasjonale lufthavn

breddegrad: 41-20S, lengdegrad: 174-48E, høyde over havet: 12 m

Gjeldene værobservasjon

Denne rapporten ble laget for 31 minutter siden, klokken 06:30 UTC
Vind 7 kt fra Nord
Temperatur 14°C
Luftfuktighet 82%
Trykk 1020 hPa
Sikt 10 km eller mer

METAR: NZWN 250630Z AUTO 36007KT 9999 NCD 14/11 Q1020 NOSIG

Tid: 19:01 (07:01 UTC)

Varsel

Denne rapporten ble laget for 2 timer og 4 minutter siden, klokken 04:57 UTC
Varsel gyldig fra 25. klokken 06 UTC til 26. klokken 06 UTC
Vind 15 kt fra Nord
Sikt 10 km eller mer
ingen skyer under 1500 m og ingen bygeskyer

TAF: NZWN 250457Z 2506/2606 36015KT CAVOK

Værobservasjoner og værvarsel for over 4000 flyplasser (METAR- og TAF-rapporter).

Tilgjengelige stasjoner er representert av de røde og gule prikkene på kartet.

Hold musepekeren over prikken for å se navnet på stasjonen.

Klikk så for å se værobservasjoner og -varsler.

For å forandre kartet kan du klikke på den grønne knappen med svart kryss for å zoome inn, på den grønne knappen med strek for å zoome ut, eller på de grønne pilene for å se tilstøtende kart.


METAR-TAF: